sensor_id;sensor_type;location;lat;lon;timestamp;P1;durP1;ratioP1;P2;durP2;ratioP2
30127;SDS011;16942;53.196;6.592;2023-09-08T00:01:27;10.93;;;9.33;;
30127;SDS011;16942;53.196;6.592;2023-09-08T00:03:53;13.80;;;9.50;;
30127;SDS011;16942;53.196;6.592;2023-09-08T00:06:19;11.03;;;9.40;;
30127;SDS011;16942;53.196;6.592;2023-09-08T00:08:45;10.83;;;8.70;;
30127;SDS011;16942;53.196;6.592;2023-09-08T00:11:11;15.73;;;9.60;;
30127;SDS011;16942;53.196;6.592;2023-09-08T00:13:37;12.60;;;9.53;;
30127;SDS011;16942;53.196;6.592;2023-09-08T00:16:04;14.27;;;9.93;;
30127;SDS011;16942;53.196;6.592;2023-09-08T00:18:32;15.17;;;9.43;;
30127;SDS011;16942;53.196;6.592;2023-09-08T00:20:58;12.30;;;9.37;;
30127;SDS011;16942;53.196;6.592;2023-09-08T00:23:24;12.47;;;9.63;;
30127;SDS011;16942;53.196;6.592;2023-09-08T00:25:52;13.43;;;9.60;;
30127;SDS011;16942;53.196;6.592;2023-09-08T00:28:18;11.37;;;9.63;;
30127;SDS011;16942;53.196;6.592;2023-09-08T00:30:44;16.23;;;9.57;;
30127;SDS011;16942;53.196;6.592;2023-09-08T00:33:10;13.60;;;9.97;;
30127;SDS011;16942;53.196;6.592;2023-09-08T00:35:38;11.30;;;9.40;;
30127;SDS011;16942;53.196;6.592;2023-09-08T00:38:04;13.77;;;9.67;;
30127;SDS011;16942;53.196;6.592;2023-09-08T00:40:30;12.03;;;9.50;;
30127;SDS011;16942;53.196;6.592;2023-09-08T00:42:57;12.63;;;10.07;;
30127;SDS011;16942;53.196;6.592;2023-09-08T00:45:23;12.80;;;10.57;;
30127;SDS011;16942;53.196;6.592;2023-09-08T00:47:52;10.90;;;9.63;;
30127;SDS011;16942;53.196;6.592;2023-09-08T00:50:18;13.47;;;10.27;;
30127;SDS011;16942;53.196;6.592;2023-09-08T00:52:44;10.70;;;9.60;;
30127;SDS011;16942;53.196;6.592;2023-09-08T00:55:10;13.03;;;10.13;;
30127;SDS011;16942;53.196;6.592;2023-09-08T00:57:36;15.97;;;10.87;;
30127;SDS011;16942;53.196;6.592;2023-09-08T01:00:02;13.60;;;9.90;;
30127;SDS011;16942;53.196;6.592;2023-09-08T01:02:31;15.73;;;10.13;;
30127;SDS011;16942;53.196;6.592;2023-09-08T01:04:58;13.97;;;10.10;;
30127;SDS011;16942;53.196;6.592;2023-09-08T01:07:27;14.60;;;9.73;;
30127;SDS011;16942;53.196;6.592;2023-09-08T01:09:55;14.73;;;10.07;;
30127;SDS011;16942;53.196;6.592;2023-09-08T01:12:22;12.77;;;10.20;;
30127;SDS011;16942;53.196;6.592;2023-09-08T01:14:48;12.87;;;9.97;;
30127;SDS011;16942;53.196;6.592;2023-09-08T01:17:14;13.13;;;10.50;;
30127;SDS011;16942;53.196;6.592;2023-09-08T01:19:40;14.43;;;11.03;;
30127;SDS011;16942;53.196;6.592;2023-09-08T01:27:18;12.27;;;9.80;;
30127;SDS011;16942;53.196;6.592;2023-09-08T01:29:44;15.60;;;11.30;;
30127;SDS011;16942;53.196;6.592;2023-09-08T01:32:11;15.73;;;11.03;;
30127;SDS011;16942;53.196;6.592;2023-09-08T01:34:37;15.87;;;11.10;;
30127;SDS011;16942;53.196;6.592;2023-09-08T01:37:06;15.20;;;10.43;;
30127;SDS011;16942;53.196;6.592;2023-09-08T01:39:32;15.73;;;11.63;;
30127;SDS011;16942;53.196;6.592;2023-09-08T01:41:58;14.90;;;11.20;;
30127;SDS011;16942;53.196;6.592;2023-09-08T01:44:24;14.30;;;10.77;;
30127;SDS011;16942;53.196;6.592;2023-09-08T01:46:50;13.83;;;10.23;;
30127;SDS011;16942;53.196;6.592;2023-09-08T01:49:21;13.33;;;10.83;;
30127;SDS011;16942;53.196;6.592;2023-09-08T01:51:47;20.57;;;12.13;;
30127;SDS011;16942;53.196;6.592;2023-09-08T01:54:13;14.87;;;11.00;;
30127;SDS011;16942;53.196;6.592;2023-09-08T01:56:39;14.47;;;10.60;;
30127;SDS011;16942;53.196;6.592;2023-09-08T01:59:05;17.03;;;11.30;;
30127;SDS011;16942;53.196;6.592;2023-09-08T02:01:31;13.43;;;10.27;;
30127;SDS011;16942;53.196;6.592;2023-09-08T02:03:57;13.10;;;11.03;;
30127;SDS011;16942;53.196;6.592;2023-09-08T02:06:23;14.13;;;10.77;;
30127;SDS011;16942;53.196;6.592;2023-09-08T02:08:49;13.60;;;11.00;;
30127;SDS011;16942;53.196;6.592;2023-09-08T02:11:15;13.00;;;9.97;;
30127;SDS011;16942;53.196;6.592;2023-09-08T02:13:44;16.53;;;10.70;;
30127;SDS011;16942;53.196;6.592;2023-09-08T02:16:14;15.17;;;10.93;;
30127;SDS011;16942;53.196;6.592;2023-09-08T02:18:43;16.40;;;11.70;;
30127;SDS011;16942;53.196;6.592;2023-09-08T02:21:09;15.00;;;11.40;;
30127;SDS011;16942;53.196;6.592;2023-09-08T02:23:35;17.43;;;11.10;;
30127;SDS011;16942;53.196;6.592;2023-09-08T02:26:01;13.40;;;10.33;;
30127;SDS011;16942;53.196;6.592;2023-09-08T02:28:27;14.80;;;11.67;;
30127;SDS011;16942;53.196;6.592;2023-09-08T02:30:54;12.60;;;10.77;;
30127;SDS011;16942;53.196;6.592;2023-09-08T02:33:20;17.10;;;11.10;;
30127;SDS011;16942;53.196;6.592;2023-09-08T02:35:46;17.90;;;11.30;;
30127;SDS011;16942;53.196;6.592;2023-09-08T02:38:12;20.53;;;11.43;;
30127;SDS011;16942;53.196;6.592;2023-09-08T02:40:38;14.77;;;10.80;;
30127;SDS011;16942;53.196;6.592;2023-09-08T02:43:04;15.20;;;11.03;;
30127;SDS011;16942;53.196;6.592;2023-09-08T02:45:30;13.50;;;11.13;;
30127;SDS011;16942;53.196;6.592;2023-09-08T02:47:56;15.70;;;11.53;;
30127;SDS011;16942;53.196;6.592;2023-09-08T02:50:22;17.47;;;12.30;;
30127;SDS011;16942;53.196;6.592;2023-09-08T02:52:49;15.10;;;11.37;;
30127;SDS011;16942;53.196;6.592;2023-09-08T02:55:15;14.43;;;10.90;;
30127;SDS011;16942;53.196;6.592;2023-09-08T02:57:41;17.33;;;11.70;;
30127;SDS011;16942;53.196;6.592;2023-09-08T03:00:07;15.13;;;11.63;;
30127;SDS011;16942;53.196;6.592;2023-09-08T03:02:33;15.83;;;11.33;;
30127;SDS011;16942;53.196;6.592;2023-09-08T03:04:59;16.90;;;11.37;;
30127;SDS011;16942;53.196;6.592;2023-09-08T03:07:25;16.13;;;11.73;;
30127;SDS011;16942;53.196;6.592;2023-09-08T03:09:51;16.30;;;12.13;;
30127;SDS011;16942;53.196;6.592;2023-09-08T03:12:17;14.50;;;11.40;;
30127;SDS011;16942;53.196;6.592;2023-09-08T03:14:44;14.13;;;10.83;;
30127;SDS011;16942;53.196;6.592;2023-09-08T03:17:10;13.47;;;11.40;;
30127;SDS011;16942;53.196;6.592;2023-09-08T03:19:38;17.70;;;11.90;;
30127;SDS011;16942;53.196;6.592;2023-09-08T03:22:04;15.63;;;11.37;;
30127;SDS011;16942;53.196;6.592;2023-09-08T03:24:30;16.30;;;11.60;;
30127;SDS011;16942;53.196;6.592;2023-09-08T03:26:56;14.50;;;11.17;;
30127;SDS011;16942;53.196;6.592;2023-09-08T03:29:23;15.37;;;11.43;;
30127;SDS011;16942;53.196;6.592;2023-09-08T03:31:49;14.80;;;11.70;;
30127;SDS011;16942;53.196;6.592;2023-09-08T03:34:15;15.63;;;11.13;;
30127;SDS011;16942;53.196;6.592;2023-09-08T03:36:44;17.67;;;12.53;;
30127;SDS011;16942;53.196;6.592;2023-09-08T03:39:10;15.37;;;12.20;;
30127;SDS011;16942;53.196;6.592;2023-09-08T03:41:36;18.17;;;12.40;;
30127;SDS011;16942;53.196;6.592;2023-09-08T03:44:02;13.70;;;11.37;;
30127;SDS011;16942;53.196;6.592;2023-09-08T03:46:28;17.50;;;12.00;;
30127;SDS011;16942;53.196;6.592;2023-09-08T03:48:54;15.03;;;11.70;;
30127;SDS011;16942;53.196;6.592;2023-09-08T03:51:25;14.27;;;11.27;;
30127;SDS011;16942;53.196;6.592;2023-09-08T03:53:51;16.13;;;12.00;;
30127;SDS011;16942;53.196;6.592;2023-09-08T03:56:17;14.80;;;11.47;;
30127;SDS011;16942;53.196;6.592;2023-09-08T03:58:43;14.37;;;11.83;;
30127;SDS011;16942;53.196;6.592;2023-09-08T04:01:09;16.97;;;11.60;;
30127;SDS011;16942;53.196;6.592;2023-09-08T04:03:35;15.13;;;11.83;;
30127;SDS011;16942;53.196;6.592;2023-09-08T04:06:01;15.63;;;11.83;;
30127;SDS011;16942;53.196;6.592;2023-09-08T04:08:27;14.20;;;11.20;;
30127;SDS011;16942;53.196;6.592;2023-09-08T04:10:53;18.33;;;11.97;;
30127;SDS011;16942;53.196;6.592;2023-09-08T04:13:19;16.97;;;11.77;;
30127;SDS011;16942;53.196;6.592;2023-09-08T04:15:45;15.87;;;12.20;;
30127;SDS011;16942;53.196;6.592;2023-09-08T04:18:11;16.67;;;11.57;;
30127;SDS011;16942;53.196;6.592;2023-09-08T04:20:37;14.10;;;11.93;;
30127;SDS011;16942;53.196;6.592;2023-09-08T04:23:03;17.37;;;12.93;;
30127;SDS011;16942;53.196;6.592;2023-09-08T04:25:29;16.30;;;12.70;;
30127;SDS011;16942;53.196;6.592;2023-09-08T04:27:55;17.53;;;13.07;;
30127;SDS011;16942;53.196;6.592;2023-09-08T04:30:21;17.33;;;12.00;;
30127;SDS011;16942;53.196;6.592;2023-09-08T04:32:47;15.03;;;12.47;;
30127;SDS011;16942;53.196;6.592;2023-09-08T04:35:13;17.70;;;12.47;;
30127;SDS011;16942;53.196;6.592;2023-09-08T04:37:39;16.00;;;11.50;;
30127;SDS011;16942;53.196;6.592;2023-09-08T04:40:05;16.07;;;12.23;;
30127;SDS011;16942;53.196;6.592;2023-09-08T04:42:32;22.07;;;12.63;;
30127;SDS011;16942;53.196;6.592;2023-09-08T04:44:58;13.60;;;11.57;;
30127;SDS011;16942;53.196;6.592;2023-09-08T04:47:24;16.10;;;12.07;;
30127;SDS011;16942;53.196;6.592;2023-09-08T04:49:50;17.10;;;12.03;;
30127;SDS011;16942;53.196;6.592;2023-09-08T04:52:16;16.33;;;12.33;;
30127;SDS011;16942;53.196;6.592;2023-09-08T04:54:42;16.67;;;12.43;;
30127;SDS011;16942;53.196;6.592;2023-09-08T04:57:08;16.73;;;12.53;;
30127;SDS011;16942;53.196;6.592;2023-09-08T04:59:34;18.27;;;12.40;;
30127;SDS011;16942;53.196;6.592;2023-09-08T05:02:02;14.93;;;12.70;;
30127;SDS011;16942;53.196;6.592;2023-09-08T05:04:28;17.87;;;12.50;;
30127;SDS011;16942;53.196;6.592;2023-09-08T05:06:54;21.40;;;13.37;;
30127;SDS011;16942;53.196;6.592;2023-09-08T05:09:20;22.17;;;13.57;;
30127;SDS011;16942;53.196;6.592;2023-09-08T05:11:46;16.40;;;12.73;;
30127;SDS011;16942;53.196;6.592;2023-09-08T05:14:12;15.97;;;13.17;;
30127;SDS011;16942;53.196;6.592;2023-09-08T05:16:38;15.60;;;12.73;;
30127;SDS011;16942;53.196;6.592;2023-09-08T05:19:10;16.87;;;14.63;;
30127;SDS011;16942;53.196;6.592;2023-09-08T05:21:38;18.20;;;13.00;;
30127;SDS011;16942;53.196;6.592;2023-09-08T05:24:05;20.63;;;13.20;;
30127;SDS011;16942;53.196;6.592;2023-09-08T05:26:31;21.87;;;13.53;;
30127;SDS011;16942;53.196;6.592;2023-09-08T05:28:57;18.93;;;14.10;;
30127;SDS011;16942;53.196;6.592;2023-09-08T05:31:23;31.03;;;15.80;;
30127;SDS011;16942;53.196;6.592;2023-09-08T05:33:49;30.07;;;14.17;;
30127;SDS011;16942;53.196;6.592;2023-09-08T05:36:15;19.03;;;14.17;;
30127;SDS011;16942;53.196;6.592;2023-09-08T05:38:41;23.77;;;14.10;;
30127;SDS011;16942;53.196;6.592;2023-09-08T05:41:07;25.83;;;15.07;;
30127;SDS011;16942;53.196;6.592;2023-09-08T05:43:33;22.03;;;13.20;;
30127;SDS011;16942;53.196;6.592;2023-09-08T05:45:59;29.30;;;15.07;;
30127;SDS011;16942;53.196;6.592;2023-09-08T05:48:25;34.97;;;15.83;;
30127;SDS011;16942;53.196;6.592;2023-09-08T05:50:51;30.33;;;16.50;;
30127;SDS011;16942;53.196;6.592;2023-09-08T05:53:17;30.57;;;15.07;;
30127;SDS011;16942;53.196;6.592;2023-09-08T05:55:43;23.47;;;14.87;;
30127;SDS011;16942;53.196;6.592;2023-09-08T05:58:09;23.23;;;13.07;;
30127;SDS011;16942;53.196;6.592;2023-09-08T06:00:35;19.10;;;12.40;;
30127;SDS011;16942;53.196;6.592;2023-09-08T06:03:02;28.67;;;16.03;;
30127;SDS011;16942;53.196;6.592;2023-09-08T06:05:28;26.70;;;15.07;;
30127;SDS011;16942;53.196;6.592;2023-09-08T06:07:54;39.27;;;17.57;;
30127;SDS011;16942;53.196;6.592;2023-09-08T06:10:20;29.20;;;15.60;;
30127;SDS011;16942;53.196;6.592;2023-09-08T06:12:46;21.20;;;14.10;;
30127;SDS011;16942;53.196;6.592;2023-09-08T06:15:15;23.07;;;14.87;;
30127;SDS011;16942;53.196;6.592;2023-09-08T06:17:42;19.53;;;14.40;;
30127;SDS011;16942;53.196;6.592;2023-09-08T06:20:08;22.17;;;13.83;;
30127;SDS011;16942;53.196;6.592;2023-09-08T06:22:34;20.77;;;14.60;;
30127;SDS011;16942;53.196;6.592;2023-09-08T06:25:00;20.93;;;13.50;;
30127;SDS011;16942;53.196;6.592;2023-09-08T06:27:26;16.73;;;13.50;;
30127;SDS011;16942;53.196;6.592;2023-09-08T06:29:52;17.30;;;12.93;;
30127;SDS011;16942;53.196;6.592;2023-09-08T06:32:18;21.13;;;14.57;;
30127;SDS011;16942;53.196;6.592;2023-09-08T06:34:44;18.67;;;13.27;;
30127;SDS011;16942;53.196;6.592;2023-09-08T06:37:10;17.20;;;13.93;;
30127;SDS011;16942;53.196;6.592;2023-09-08T06:39:36;18.00;;;12.97;;
30127;SDS011;16942;53.196;6.592;2023-09-08T06:42:02;17.93;;;12.73;;
30127;SDS011;16942;53.196;6.592;2023-09-08T06:44:29;18.13;;;13.73;;
30127;SDS011;16942;53.196;6.592;2023-09-08T06:46:55;17.37;;;13.47;;
30127;SDS011;16942;53.196;6.592;2023-09-08T06:49:21;18.93;;;13.37;;
30127;SDS011;16942;53.196;6.592;2023-09-08T06:51:47;18.17;;;13.37;;
30127;SDS011;16942;53.196;6.592;2023-09-08T06:54:14;20.00;;;14.93;;
30127;SDS011;16942;53.196;6.592;2023-09-08T06:56:40;16.23;;;13.10;;
30127;SDS011;16942;53.196;6.592;2023-09-08T06:59:06;16.47;;;12.50;;
30127;SDS011;16942;53.196;6.592;2023-09-08T07:01:32;14.63;;;12.20;;
30127;SDS011;16942;53.196;6.592;2023-09-08T07:03:58;18.33;;;13.70;;
30127;SDS011;16942;53.196;6.592;2023-09-08T07:06:24;18.53;;;12.37;;
30127;SDS011;16942;53.196;6.592;2023-09-08T07:08:50;17.57;;;14.20;;
30127;SDS011;16942;53.196;6.592;2023-09-08T07:11:16;21.70;;;14.17;;
30127;SDS011;16942;53.196;6.592;2023-09-08T07:13:42;15.90;;;13.57;;
30127;SDS011;16942;53.196;6.592;2023-09-08T07:16:08;17.60;;;12.93;;
30127;SDS011;16942;53.196;6.592;2023-09-08T07:18:34;17.37;;;12.47;;
30127;SDS011;16942;53.196;6.592;2023-09-08T07:21:02;17.23;;;12.93;;
30127;SDS011;16942;53.196;6.592;2023-09-08T07:23:28;14.67;;;12.53;;
30127;SDS011;16942;53.196;6.592;2023-09-08T07:25:54;19.87;;;12.37;;
30127;SDS011;16942;53.196;6.592;2023-09-08T07:28:20;19.53;;;12.80;;
30127;SDS011;16942;53.196;6.592;2023-09-08T07:30:46;21.03;;;13.00;;
30127;SDS011;16942;53.196;6.592;2023-09-08T07:33:12;20.30;;;13.17;;
30127;SDS011;16942;53.196;6.592;2023-09-08T07:35:39;18.03;;;11.27;;
30127;SDS011;16942;53.196;6.592;2023-09-08T07:38:06;15.80;;;10.97;;
30127;SDS011;16942;53.196;6.592;2023-09-08T07:40:32;20.73;;;12.77;;
30127;SDS011;16942;53.196;6.592;2023-09-08T07:42:59;16.30;;;11.07;;
30127;SDS011;16942;53.196;6.592;2023-09-08T07:45:25;15.30;;;10.63;;
30127;SDS011;16942;53.196;6.592;2023-09-08T07:47:51;15.33;;;11.07;;
30127;SDS011;16942;53.196;6.592;2023-09-08T07:50:19;12.70;;;10.97;;
30127;SDS011;16942;53.196;6.592;2023-09-08T07:52:45;22.57;;;13.10;;
30127;SDS011;16942;53.196;6.592;2023-09-08T07:55:11;14.07;;;11.47;;
30127;SDS011;16942;53.196;6.592;2023-09-08T07:57:37;12.23;;;10.13;;
30127;SDS011;16942;53.196;6.592;2023-09-08T08:00:04;13.20;;;10.90;;
30127;SDS011;16942;53.196;6.592;2023-09-08T08:02:30;14.87;;;9.97;;
30127;SDS011;16942;53.196;6.592;2023-09-08T08:04:56;14.37;;;11.83;;
30127;SDS011;16942;53.196;6.592;2023-09-08T08:07:22;15.03;;;10.77;;
30127;SDS011;16942;53.196;6.592;2023-09-08T08:09:48;16.50;;;9.73;;
30127;SDS011;16942;53.196;6.592;2023-09-08T08:12:14;11.50;;;8.80;;
30127;SDS011;16942;53.196;6.592;2023-09-08T08:14:40;12.68;;;9.93;;
30127;SDS011;16942;53.196;6.592;2023-09-08T08:17:06;10.73;;;8.38;;
30127;SDS011;16942;53.196;6.592;2023-09-08T08:19:32;13.07;;;8.10;;
30127;SDS011;16942;53.196;6.592;2023-09-08T08:21:58;11.47;;;8.17;;
30127;SDS011;16942;53.196;6.592;2023-09-08T08:24:24;11.10;;;7.93;;
30127;SDS011;16942;53.196;6.592;2023-09-08T08:26:51;11.98;;;7.13;;
30127;SDS011;16942;53.196;6.592;2023-09-08T08:29:17;8.77;;;7.28;;
30127;SDS011;16942;53.196;6.592;2023-09-08T08:31:43;8.02;;;7.22;;
30127;SDS011;16942;53.196;6.592;2023-09-08T08:34:09;11.63;;;7.13;;
30127;SDS011;16942;53.196;6.592;2023-09-08T08:36:35;9.10;;;6.75;;
30127;SDS011;16942;53.196;6.592;2023-09-08T08:39:01;7.40;;;6.70;;
30127;SDS011;16942;53.196;6.592;2023-09-08T08:41:30;10.50;;;6.80;;
30127;SDS011;16942;53.196;6.592;2023-09-08T08:43:56;10.25;;;7.57;;
30127;SDS011;16942;53.196;6.592;2023-09-08T08:46:22;7.80;;;6.90;;
30127;SDS011;16942;53.196;6.592;2023-09-08T08:48:48;15.25;;;6.50;;
30127;SDS011;16942;53.196;6.592;2023-09-08T08:51:17;9.63;;;6.80;;
30127;SDS011;16942;53.196;6.592;2023-09-08T08:53:43;7.97;;;6.55;;
30127;SDS011;16942;53.196;6.592;2023-09-08T08:56:10;7.47;;;6.13;;
30127;SDS011;16942;53.196;6.592;2023-09-08T08:58:39;9.18;;;7.05;;
30127;SDS011;16942;53.196;6.592;2023-09-08T09:01:06;14.23;;;6.18;;
30127;SDS011;16942;53.196;6.592;2023-09-08T09:03:32;7.90;;;6.53;;
30127;SDS011;16942;53.196;6.592;2023-09-08T09:06:00;7.13;;;6.18;;
30127;SDS011;16942;53.196;6.592;2023-09-08T09:08:26;8.02;;;5.70;;
30127;SDS011;16942;53.196;6.592;2023-09-08T09:10:52;11.80;;;6.88;;
30127;SDS011;16942;53.196;6.592;2023-09-08T09:13:18;7.93;;;6.57;;
30127;SDS011;16942;53.196;6.592;2023-09-08T09:15:45;9.77;;;6.50;;
30127;SDS011;16942;53.196;6.592;2023-09-08T09:18:19;7.22;;;5.85;;
30127;SDS011;16942;53.196;6.592;2023-09-08T09:20:55;7.65;;;6.20;;
30127;SDS011;16942;53.196;6.592;2023-09-08T09:23:31;7.32;;;6.60;;
30127;SDS011;16942;53.196;6.592;2023-09-08T09:25:57;8.68;;;6.38;;
30127;SDS011;16942;53.196;6.592;2023-09-08T09:28:24;6.57;;;5.97;;
30127;SDS011;16942;53.196;6.592;2023-09-08T09:30:51;7.28;;;6.28;;
30127;SDS011;16942;53.196;6.592;2023-09-08T09:33:19;9.73;;;5.65;;
30127;SDS011;16942;53.196;6.592;2023-09-08T09:35:46;7.80;;;6.03;;
30127;SDS011;16942;53.196;6.592;2023-09-08T09:38:13;6.55;;;5.72;;
30127;SDS011;16942;53.196;6.592;2023-09-08T09:40:39;7.30;;;5.72;;
30127;SDS011;16942;53.196;6.592;2023-09-08T09:43:06;9.98;;;6.80;;
30127;SDS011;16942;53.196;6.592;2023-09-08T09:45:35;7.78;;;5.90;;
30127;SDS011;16942;53.196;6.592;2023-09-08T09:48:05;6.80;;;6.10;;
30127;SDS011;16942;53.196;6.592;2023-09-08T09:50:33;10.10;;;5.70;;
30127;SDS011;16942;53.196;6.592;2023-09-08T09:53:00;6.90;;;5.97;;
30127;SDS011;16942;53.196;6.592;2023-09-08T09:55:27;8.57;;;5.80;;
30127;SDS011;16942;53.196;6.592;2023-09-08T09:57:58;9.43;;;6.20;;
30127;SDS011;16942;53.196;6.592;2023-09-08T10:00:26;8.10;;;5.97;;
30127;SDS011;16942;53.196;6.592;2023-09-08T10:02:56;11.07;;;6.03;;
30127;SDS011;16942;53.196;6.592;2023-09-08T10:05:26;6.63;;;5.85;;
30127;SDS011;16942;53.196;6.592;2023-09-08T10:07:52;6.43;;;5.75;;
30127;SDS011;16942;53.196;6.592;2023-09-08T10:10:19;9.43;;;5.93;;
30127;SDS011;16942;53.196;6.592;2023-09-08T10:12:45;6.97;;;5.68;;
30127;SDS011;16942;53.196;6.592;2023-09-08T10:15:12;8.15;;;5.72;;
30127;SDS011;16942;53.196;6.592;2023-09-08T10:17:40;8.13;;;6.35;;
30127;SDS011;16942;53.196;6.592;2023-09-08T10:20:07;10.15;;;6.28;;
30127;SDS011;16942;53.196;6.592;2023-09-08T10:22:37;10.10;;;5.85;;
30127;SDS011;16942;53.196;6.592;2023-09-08T10:25:04;9.10;;;6.72;;
30127;SDS011;16942;53.196;6.592;2023-09-08T10:27:31;8.70;;;5.60;;
30127;SDS011;16942;53.196;6.592;2023-09-08T10:30:05;6.78;;;6.13;;
30127;SDS011;16942;53.196;6.592;2023-09-08T10:32:34;8.32;;;6.05;;
30127;SDS011;16942;53.196;6.592;2023-09-08T10:35:02;10.45;;;5.78;;
30127;SDS011;16942;53.196;6.592;2023-09-08T10:37:28;9.30;;;6.03;;
30127;SDS011;16942;53.196;6.592;2023-09-08T10:42:40;7.45;;;5.90;;
30127;SDS011;16942;53.196;6.592;2023-09-08T10:45:15;6.47;;;5.80;;
30127;SDS011;16942;53.196;6.592;2023-09-08T10:50:14;8.35;;;6.53;;
30127;SDS011;16942;53.196;6.592;2023-09-08T10:52:41;7.03;;;5.93;;
30127;SDS011;16942;53.196;6.592;2023-09-08T10:55:07;7.05;;;6.03;;
30127;SDS011;16942;53.196;6.592;2023-09-08T10:57:33;6.47;;;5.70;;
30127;SDS011;16942;53.196;6.592;2023-09-08T11:00:03;6.15;;;5.63;;
30127;SDS011;16942;53.196;6.592;2023-09-08T11:02:37;7.50;;;6.45;;
30127;SDS011;16942;53.196;6.592;2023-09-08T11:05:13;6.65;;;6.05;;
30127;SDS011;16942;53.196;6.592;2023-09-08T11:07:41;6.38;;;5.80;;
30127;SDS011;16942;53.196;6.592;2023-09-08T11:10:07;7.22;;;6.18;;
30127;SDS011;16942;53.196;6.592;2023-09-08T11:12:34;6.45;;;5.85;;
30127;SDS011;16942;53.196;6.592;2023-09-08T11:15:01;8.75;;;6.05;;
30127;SDS011;16942;53.196;6.592;2023-09-08T11:17:32;6.63;;;5.93;;
30127;SDS011;16942;53.196;6.592;2023-09-08T11:20:01;6.35;;;5.75;;
30127;SDS011;16942;53.196;6.592;2023-09-08T11:22:33;6.72;;;6.15;;
30127;SDS011;16942;53.196;6.592;2023-09-08T11:25:00;6.30;;;5.80;;
30127;SDS011;16942;53.196;6.592;2023-09-08T11:27:29;7.57;;;6.10;;
30127;SDS011;16942;53.196;6.592;2023-09-08T11:29:56;6.80;;;6.13;;
30127;SDS011;16942;53.196;6.592;2023-09-08T11:32:22;8.40;;;6.13;;
30127;SDS011;16942;53.196;6.592;2023-09-08T11:34:48;6.35;;;5.75;;
30127;SDS011;16942;53.196;6.592;2023-09-08T11:37:15;6.80;;;6.18;;
30127;SDS011;16942;53.196;6.592;2023-09-08T11:39:43;11.13;;;6.45;;
30127;SDS011;16942;53.196;6.592;2023-09-08T11:42:11;7.07;;;6.38;;
30127;SDS011;16942;53.196;6.592;2023-09-08T11:44:37;6.40;;;5.80;;
30127;SDS011;16942;53.196;6.592;2023-09-08T11:47:05;7.38;;;6.03;;
30127;SDS011;16942;53.196;6.592;2023-09-08T11:49:35;5.78;;;5.28;;
30127;SDS011;16942;53.196;6.592;2023-09-08T11:52:01;6.90;;;6.20;;
30127;SDS011;16942;53.196;6.592;2023-09-08T11:54:28;7.63;;;5.88;;
30127;SDS011;16942;53.196;6.592;2023-09-08T11:56:56;6.65;;;5.90;;
30127;SDS011;16942;53.196;6.592;2023-09-08T11:59:22;6.72;;;6.00;;
30127;SDS011;16942;53.196;6.592;2023-09-08T12:01:48;9.70;;;8.80;;
30127;SDS011;16942;53.196;6.592;2023-09-08T12:04:20;7.97;;;5.93;;
30127;SDS011;16942;53.196;6.592;2023-09-08T12:06:47;6.55;;;5.95;;
30127;SDS011;16942;53.196;6.592;2023-09-08T12:09:13;6.57;;;6.00;;
30127;SDS011;16942;53.196;6.592;2023-09-08T12:11:39;5.93;;;5.43;;
30127;SDS011;16942;53.196;6.592;2023-09-08T12:14:12;6.30;;;5.70;;
30127;SDS011;16942;53.196;6.592;2023-09-08T12:16:39;6.83;;;6.10;;
30127;SDS011;16942;53.196;6.592;2023-09-08T12:19:05;13.70;;;6.50;;
30127;SDS011;16942;53.196;6.592;2023-09-08T12:21:34;7.53;;;5.88;;
30127;SDS011;16942;53.196;6.592;2023-09-08T12:24:00;7.55;;;5.78;;
30127;SDS011;16942;53.196;6.592;2023-09-08T12:26:30;7.00;;;5.68;;
30127;SDS011;16942;53.196;6.592;2023-09-08T12:28:56;9.00;;;5.68;;
30127;SDS011;16942;53.196;6.592;2023-09-08T12:31:22;7.55;;;5.88;;
30127;SDS011;16942;53.196;6.592;2023-09-08T12:33:48;6.60;;;5.63;;
30127;SDS011;16942;53.196;6.592;2023-09-08T12:36:15;10.70;;;5.78;;
30127;SDS011;16942;53.196;6.592;2023-09-08T12:38:46;6.07;;;5.47;;
30127;SDS011;16942;53.196;6.592;2023-09-08T12:41:12;6.65;;;5.93;;
30127;SDS011;16942;53.196;6.592;2023-09-08T12:43:38;9.45;;;6.18;;
30127;SDS011;16942;53.196;6.592;2023-09-08T12:46:04;7.25;;;5.93;;
30127;SDS011;16942;53.196;6.592;2023-09-08T12:48:30;8.57;;;6.20;;
30127;SDS011;16942;53.196;6.592;2023-09-08T12:50:57;7.72;;;6.43;;
30127;SDS011;16942;53.196;6.592;2023-09-08T12:53:23;10.50;;;5.97;;
30127;SDS011;16942;53.196;6.592;2023-09-08T12:55:49;6.35;;;5.85;;
30127;SDS011;16942;53.196;6.592;2023-09-08T12:58:16;7.15;;;5.78;;
30127;SDS011;16942;53.196;6.592;2023-09-08T13:00:42;8.18;;;5.50;;
30127;SDS011;16942;53.196;6.592;2023-09-08T13:03:09;7.63;;;5.80;;
30127;SDS011;16942;53.196;6.592;2023-09-08T13:05:35;11.15;;;5.85;;
30127;SDS011;16942;53.196;6.592;2023-09-08T13:08:03;8.32;;;5.90;;
30127;SDS011;16942;53.196;6.592;2023-09-08T13:10:29;6.00;;;5.50;;
30127;SDS011;16942;53.196;6.592;2023-09-08T13:12:55;8.70;;;5.95;;
30127;SDS011;16942;53.196;6.592;2023-09-08T13:15:22;5.57;;;5.05;;
30127;SDS011;16942;53.196;6.592;2023-09-08T13:17:48;5.90;;;5.40;;
30127;SDS011;16942;53.196;6.592;2023-09-08T13:20:14;8.02;;;5.22;;
30127;SDS011;16942;53.196;6.592;2023-09-08T13:22:40;6.10;;;5.40;;
30127;SDS011;16942;53.196;6.592;2023-09-08T13:25:07;5.70;;;5.20;;
30127;SDS011;16942;53.196;6.592;2023-09-08T13:27:33;5.82;;;5.25;;
30127;SDS011;16942;53.196;6.592;2023-09-08T13:30:12;6.10;;;5.30;;
30127;SDS011;16942;53.196;6.592;2023-09-08T13:32:38;14.23;;;6.30;;
30127;SDS011;16942;53.196;6.592;2023-09-08T13:35:05;6.32;;;5.60;;
30127;SDS011;16942;53.196;6.592;2023-09-08T13:37:31;9.23;;;5.40;;
30127;SDS011;16942;53.196;6.592;2023-09-08T13:39:59;9.63;;;5.10;;
30127;SDS011;16942;53.196;6.592;2023-09-08T13:42:25;6.18;;;5.60;;
30127;SDS011;16942;53.196;6.592;2023-09-08T13:44:51;5.53;;;5.03;;
30127;SDS011;16942;53.196;6.592;2023-09-08T13:47:17;6.32;;;4.78;;
30127;SDS011;16942;53.196;6.592;2023-09-08T13:49:43;6.20;;;5.00;;
30127;SDS011;16942;53.196;6.592;2023-09-08T13:52:09;5.95;;;5.28;;
30127;SDS011;16942;53.196;6.592;2023-09-08T13:54:35;8.55;;;5.53;;
30127;SDS011;16942;53.196;6.592;2023-09-08T13:57:01;5.55;;;5.00;;
30127;SDS011;16942;53.196;6.592;2023-09-08T13:59:28;6.03;;;5.28;;
30127;SDS011;16942;53.196;6.592;2023-09-08T14:01:55;6.75;;;5.43;;
30127;SDS011;16942;53.196;6.592;2023-09-08T14:04:22;6.68;;;5.18;;
30127;SDS011;16942;53.196;6.592;2023-09-08T14:06:48;5.47;;;4.80;;
30127;SDS011;16942;53.196;6.592;2023-09-08T14:09:14;5.15;;;4.75;;
30127;SDS011;16942;53.196;6.592;2023-09-08T14:11:40;7.93;;;5.20;;
30127;SDS011;16942;53.196;6.592;2023-09-08T14:14:06;5.68;;;5.05;;
30127;SDS011;16942;53.196;6.592;2023-09-08T14:16:32;5.57;;;5.03;;
30127;SDS011;16942;53.196;6.592;2023-09-08T14:18:59;5.63;;;5.10;;
30127;SDS011;16942;53.196;6.592;2023-09-08T14:21:25;5.70;;;5.20;;
30127;SDS011;16942;53.196;6.592;2023-09-08T14:23:51;10.38;;;5.93;;
30127;SDS011;16942;53.196;6.592;2023-09-08T14:26:17;5.78;;;5.15;;
30127;SDS011;16942;53.196;6.592;2023-09-08T14:28:45;5.55;;;5.00;;
30127;SDS011;16942;53.196;6.592;2023-09-08T14:31:11;7.70;;;5.10;;
30127;SDS011;16942;53.196;6.592;2023-09-08T14:33:37;7.70;;;5.70;;
30127;SDS011;16942;53.196;6.592;2023-09-08T14:36:03;5.97;;;4.97;;
30127;SDS011;16942;53.196;6.592;2023-09-08T14:38:29;8.55;;;5.47;;
30127;SDS011;16942;53.196;6.592;2023-09-08T14:41:01;5.60;;;5.10;;